Time;durP1;ratioP1;P1;durP2;ratioP2;P2;SDS_P1;SDS_P2;PMS_P1;PMS_P2;Temp;Humidity;BMP_temperature;BMP_pressure;BME280_temperature;BME280_humidity;BME280_pressure;Samples;Min_cycle;Max_cycle;Signal;HPM_P1;HPM_P2
2024/02/14 00:00:26;;;;;;;17.05;12.18;;;6.70;99.90;;;;;;7381466;19;20022;-64
2024/02/14 00:02:53;;;;;;;18.80;13.18;;;6.80;99.90;;;;;;7378036;19;20011;-60
2024/02/14 00:05:20;;;;;;;19.02;11.77;;;6.70;99.90;;;;;;7374385;19;20074;-60
2024/02/14 00:07:47;;;;;;;17.73;13.43;;;6.80;99.90;;;;;;7369336;19;20963;-60
2024/02/14 00:10:14;;;;;;;16.60;12.50;;;6.70;99.90;;;;;;7375426;19;20070;-63
2024/02/14 00:12:42;;;;;;;21.58;14.82;;;6.70;99.90;;;;;;7384127;19;20086;-64
2024/02/14 00:15:10;;;;;;;19.30;13.77;;;6.80;99.90;;;;;;7382808;19;20014;-63
2024/02/14 00:17:37;;;;;;;16.75;13.40;;;6.80;99.90;;;;;;7384404;19;20649;-64
2024/02/14 00:20:05;;;;;;;17.15;14.10;;;6.80;99.90;;;;;;7384519;19;20094;-64
2024/02/14 00:22:45;;;;;;;17.10;13.35;;;6.80;99.90;;;;;;7384248;19;20085;-63
2024/02/14 00:25:13;;;;;;;17.58;14.35;;;6.80;99.90;;;;;;7383618;19;20007;-63
2024/02/14 00:27:42;;;;;;;17.45;12.93;;;6.80;99.90;;;;;;7383633;19;20018;-64
2024/02/14 00:30:10;;;;;;;16.40;13.52;;;6.90;99.90;;;;;;7386057;19;20018;-64
2024/02/14 00:32:57;;;;;;;20.45;14.30;;;6.80;99.90;;;;;;7383501;19;20014;-64
2024/02/14 00:35:24;;;;;;;17.67;13.70;;;6.90;99.90;;;;;;7381050;19;20029;-64
2024/02/14 00:37:50;;;;;;;16.67;13.50;;;6.90;99.90;;;;;;7379642;19;20490;-64
2024/02/14 00:40:17;;;;;;;16.92;14.77;;;6.90;99.90;;;;;;7384233;19;20845;-64
2024/02/14 00:42:44;;;;;;;17.17;14.65;;;7.00;99.90;;;;;;7383627;19;21338;-63
2024/02/14 00:45:10;;;;;;;17.58;13.38;;;7.00;99.90;;;;;;7380147;19;20074;-64
2024/02/14 00:47:36;;;;;;;16.70;13.75;;;7.00;99.90;;;;;;7384481;19;20015;-64
2024/02/14 00:50:03;;;;;;;17.35;13.60;;;6.90;99.90;;;;;;7382855;19;20059;-64
2024/02/14 00:52:32;;;;;;;19.27;14.75;;;7.00;99.90;;;;;;7387486;19;20041;-64
2024/02/14 00:54:58;;;;;;;20.20;14.43;;;7.00;99.90;;;;;;7381978;19;20651;-64
2024/02/14 00:57:28;;;;;;;16.65;14.02;;;7.00;99.90;;;;;;7381601;19;20037;-64
2024/02/14 00:59:59;;;;;;;20.17;15.25;;;7.00;99.90;;;;;;7380845;19;20010;-64
2024/02/14 01:02:26;;;;;;;19.10;15.18;;;7.00;99.90;;;;;;7383033;19;20031;-64
2024/02/14 01:04:52;;;;;;;18.90;15.60;;;7.00;99.90;;;;;;7381189;19;20066;-63
2024/02/14 01:07:18;;;;;;;17.17;14.80;;;7.00;99.90;;;;;;7379392;19;20396;-64
2024/02/14 01:09:45;;;;;;;17.58;14.20;;;7.10;99.90;;;;;;7379778;19;20808;-61
2024/02/14 01:12:11;;;;;;;17.67;14.35;;;7.10;99.90;;;;;;7371256;19;20019;-60
2024/02/14 01:14:37;;;;;;;15.35;13.70;;;7.10;99.90;;;;;;7372636;19;20510;-60
2024/02/14 01:17:03;;;;;;;18.33;15.05;;;7.10;99.90;;;;;;7368595;19;20749;-61
2024/02/14 01:19:29;;;;;;;16.05;12.07;;;7.20;99.90;;;;;;7369315;19;20127;-60
2024/02/14 01:21:58;;;;;;;16.13;14.50;;;7.20;99.90;;;;;;7375499;19;20030;-63
2024/02/14 01:24:30;;;;;;;17.00;14.30;;;7.20;99.90;;;;;;7384245;19;20039;-63
2024/02/14 01:26:56;;;;;;;15.98;13.55;;;7.20;99.90;;;;;;7385429;19;20583;-60
2024/02/14 01:29:23;;;;;;;15.77;12.73;;;7.20;99.90;;;;;;7375827;19;20030;-60
2024/02/14 01:31:50;;;;;;;16.48;12.80;;;7.30;99.90;;;;;;7369147;19;20150;-60
2024/02/14 01:34:16;;;;;;;16.15;14.20;;;7.30;99.90;;;;;;7379399;19;20478;-63
2024/02/14 01:36:43;;;;;;;14.52;12.50;;;7.30;99.90;;;;;;7383214;19;20010;-64
2024/02/14 01:39:11;;;;;;;14.65;13.05;;;7.30;99.90;;;;;;7383539;19;20007;-64
2024/02/14 01:41:38;;;;;;;14.77;13.27;;;7.40;99.90;;;;;;7385055;19;20035;-63
2024/02/14 01:44:06;;;;;;;15.73;14.05;;;7.40;99.90;;;;;;7385775;19;20078;-64
2024/02/14 01:46:33;;;;;;;15.70;11.88;;;7.40;99.90;;;;;;7368627;19;20073;-60
2024/02/14 01:49:00;;;;;;;16.88;12.52;;;7.40;99.90;;;;;;7381733;19;20019;-60
2024/02/14 01:51:26;;;;;;;14.15;12.35;;;7.50;99.90;;;;;;7370826;19;20098;-60
2024/02/14 01:53:54;;;;;;;14.30;12.13;;;7.50;99.90;;;;;;7370422;19;20509;-60
2024/02/14 01:56:20;;;;;;;14.75;12.23;;;7.60;99.90;;;;;;7371900;19;20022;-60
2024/02/14 01:58:47;;;;;;;16.20;12.40;;;7.60;99.90;;;;;;7390686;19;20029;-63
2024/02/14 02:01:14;;;;;;;14.15;12.07;;;7.60;99.90;;;;;;7382094;19;20022;-64
2024/02/14 02:03:41;;;;;;;12.63;11.38;;;7.60;99.90;;;;;;7391746;19;20078;-64
2024/02/14 02:06:08;;;;;;;13.48;11.75;;;7.60;99.90;;;;;;7380630;19;20415;-60
2024/02/14 02:08:34;;;;;;;13.82;12.43;;;7.70;99.90;;;;;;7377780;19;20018;-60
2024/02/14 02:11:00;;;;;;;13.45;11.80;;;7.70;99.90;;;;;;7375910;19;20018;-60
2024/02/14 02:13:47;;;;;;;13.27;11.45;;;7.70;99.90;;;;;;7377024;19;20026;-60
2024/02/14 02:16:33;;;;;;;16.25;12.40;;;7.80;99.90;;;;;;7372836;19;21970;-60
2024/02/14 02:19:29;;;;;;;14.00;12.15;;;7.80;99.90;;;;;;7391580;19;20021;-64
2024/02/14 02:22:17;;;;;;;16.17;12.07;;;7.80;99.90;;;;;;7390256;19;20482;-64
2024/02/14 02:25:01;;;;;;;12.88;11.25;;;7.80;99.90;;;;;;7389273;19;20118;-64
2024/02/14 02:27:29;;;;;;;13.48;12.07;;;7.80;99.90;;;;;;7388556;19;20107;-63
2024/02/14 02:30:16;;;;;;;13.25;11.43;;;7.80;99.90;;;;;;7389541;19;20014;-64
2024/02/14 02:32:43;;;;;;;13.73;11.75;;;7.80;99.90;;;;;;7380381;19;20029;-60
2024/02/14 02:35:09;;;;;;;14.93;12.23;;;7.90;99.90;;;;;;7376921;19;20023;-60
2024/02/14 02:37:55;;;;;;;13.18;11.07;;;7.90;99.90;;;;;;7373490;19;20015;-60
2024/02/14 02:40:41;;;;;;;13.05;11.63;;;7.90;99.90;;;;;;7377763;19;20025;-60
2024/02/14 02:43:28;;;;;;;11.98;10.77;;;7.90;99.90;;;;;;7378761;19;20538;-60
2024/02/14 02:46:14;;;;;;;12.30;11.02;;;7.90;99.90;;;;;;7370483;19;20115;-60
2024/02/14 02:49:01;;;;;;;13.75;11.82;;;8.00;99.90;;;;;;7376324;19;20035;-60
2024/02/14 02:51:29;;;;;;;13.18;10.77;;;8.00;99.90;;;;;;7374760;19;20027;-60
2024/02/14 02:54:16;;;;;;;13.57;11.23;;;8.00;99.90;;;;;;7375807;19;20018;-60
2024/02/14 02:57:03;;;;;;;13.70;11.30;;;8.00;99.90;;;;;;7373789;19;20018;-60
2024/02/14 02:59:32;;;;;;;13.13;11.10;;;8.00;99.90;;;;;;7377745;19;20010;-60
2024/02/14 03:01:59;;;;;;;13.75;11.57;;;8.00;99.90;;;;;;7379890;19;20023;-64
2024/02/14 03:04:46;;;;;;;14.30;11.73;;;8.00;99.90;;;;;;7388724;19;20014;-59
2024/02/14 03:07:32;;;;;;;14.05;12.30;;;8.10;99.90;;;;;;7374118;19;20858;-60
2024/02/14 03:10:19;;;;;;;14.27;12.60;;;8.10;99.90;;;;;;7373215;19;20035;-59
2024/02/14 03:13:05;;;;;;;15.75;13.00;;;8.20;99.90;;;;;;7375145;19;20033;-60
2024/02/14 03:15:51;;;;;;;14.73;12.52;;;8.20;99.90;;;;;;7374623;19;20015;-60
2024/02/14 03:18:17;;;;;;;15.20;12.65;;;8.20;99.90;;;;;;7371633;19;20964;-60
2024/02/14 03:20:43;;;;;;;13.70;11.98;;;8.20;99.90;;;;;;7372737;19;20968;-60
2024/02/14 03:23:10;;;;;;;15.05;12.48;;;8.20;99.90;;;;;;7375486;19;20018;-60
2024/02/14 03:25:36;;;;;;;15.02;13.07;;;8.30;99.90;;;;;;7374533;19;20030;-59
2024/02/14 03:28:08;;;;;;;13.70;12.30;;;8.30;99.90;;;;;;7369789;19;20011;-60
2024/02/14 03:30:35;;;;;;;15.57;13.02;;;8.30;99.90;;;;;;7374187;19;20065;-59
2024/02/14 03:33:03;;;;;;;15.23;12.85;;;8.40;99.90;;;;;;7376468;19;20041;-60
2024/02/14 03:35:29;;;;;;;14.18;12.27;;;8.40;99.90;;;;;;7374718;19;20026;-60
2024/02/14 03:37:56;;;;;;;16.95;13.93;;;8.40;99.90;;;;;;7372780;19;20568;-60
2024/02/14 03:40:22;;;;;;;16.95;13.85;;;8.40;99.90;;;;;;7374357;19;20759;-60
2024/02/14 03:42:48;;;;;;;16.98;13.63;;;8.40;99.90;;;;;;7374474;19;20022;-60
2024/02/14 03:45:14;;;;;;;16.40;13.52;;;8.50;99.90;;;;;;7376544;19;20032;-60
2024/02/14 03:47:41;;;;;;;15.20;13.00;;;8.50;99.90;;;;;;7375526;19;20838;-60
2024/02/14 03:50:08;;;;;;;17.80;14.38;;;8.60;99.90;;;;;;7372045;19;20487;-60
2024/02/14 03:52:35;;;;;;;15.93;12.80;;;8.60;99.90;;;;;;7370787;19;20045;-60
2024/02/14 03:55:02;;;;;;;17.25;13.85;;;8.60;99.90;;;;;;7376412;19;20044;-60
2024/02/14 03:57:32;;;;;;;17.10;13.40;;;8.60;99.90;;;;;;7380509;19;20018;-63
2024/02/14 04:00:03;;;;;;;15.68;12.75;;;8.60;99.90;;;;;;7389511;19;20494;-63
2024/02/14 04:02:38;;;;;;;14.18;12.65;;;8.60;99.90;;;;;;7391551;19;20015;-64
2024/02/14 04:05:07;;;;;;;14.65;12.30;;;8.70;99.90;;;;;;7391410;19;20006;-64
2024/02/14 04:07:37;;;;;;;14.38;11.60;;;8.70;99.90;;;;;;7388068;19;20089;-60
2024/02/14 04:10:04;;;;;;;15.95;12.13;;;8.70;99.90;;;;;;7382294;19;20542;-63
2024/02/14 04:12:32;;;;;;;18.50;13.00;;;8.70;99.90;;;;;;7390716;19;20066;-64
2024/02/14 04:14:59;;;;;;;16.48;12.25;;;8.80;99.90;;;;;;7380054;19;20093;-64
2024/02/14 04:17:26;;;;;;;14.07;11.98;;;8.80;99.90;;;;;;7389348;19;20011;-64
2024/02/14 04:19:54;;;;;;;15.18;11.65;;;8.90;99.90;;;;;;7387111;19;20018;-63
2024/02/14 04:22:21;;;;;;;17.17;12.07;;;8.90;99.90;;;;;;7381920;19;20019;-60
2024/02/14 04:24:48;;;;;;;17.40;13.15;;;8.90;99.90;;;;;;7373798;19;20010;-60
2024/02/14 04:27:14;;;;;;;17.52;12.50;;;8.90;99.90;;;;;;7382204;19;20027;-64
2024/02/14 04:29:46;;;;;;;17.48;13.18;;;9.00;99.90;;;;;;7388866;19;20021;-64
2024/02/14 04:32:14;;;;;;;19.85;14.18;;;9.00;99.90;;;;;;7386249;19;20010;-64
2024/02/14 04:34:40;;;;;;;18.48;14.15;;;9.10;99.90;;;;;;7388513;19;20021;-64
2024/02/14 04:37:10;;;;;;;20.48;15.38;;;9.10;99.90;;;;;;7385140;19;20014;-63
2024/02/14 04:39:36;;;;;;;18.75;15.10;;;9.10;99.90;;;;;;7386491;19;20014;-64
2024/02/14 04:42:02;;;;;;;21.60;15.88;;;9.20;99.90;;;;;;7384441;19;20047;-64
2024/02/14 04:44:29;;;;;;;21.25;16.00;;;9.20;99.90;;;;;;7386642;19;20010;-63
2024/02/14 04:46:58;;;;;;;20.80;15.70;;;9.20;99.90;;;;;;7386365;19;20028;-64
2024/02/14 04:49:24;;;;;;;19.33;15.02;;;9.20;99.90;;;;;;7385556;19;20032;-64
2024/02/14 04:51:51;;;;;;;19.75;15.65;;;9.30;99.90;;;;;;7386414;19;20022;-64
2024/02/14 04:54:19;;;;;;;18.55;14.63;;;9.30;99.90;;;;;;7390268;19;20019;-64
2024/02/14 04:56:48;;;;;;;16.98;13.38;;;9.30;99.90;;;;;;7386915;19;20018;-60
2024/02/14 04:59:14;;;;;;;16.75;13.75;;;9.30;99.90;;;;;;7372951;19;20412;-60
2024/02/14 05:01:40;;;;;;;19.27;14.60;;;9.30;99.90;;;;;;7370601;19;20018;-60
2024/02/14 05:04:06;;;;;;;18.42;13.80;;;9.30;99.90;;;;;;7371169;19;20512;-60
2024/02/14 05:06:33;;;;;;;19.38;13.55;;;9.30;99.90;;;;;;7370526;19;20702;-60
2024/02/14 05:08:59;;;;;;;15.70;13.38;;;9.30;99.90;;;;;;7373891;19;20011;-60
2024/02/14 05:11:26;;;;;;;17.75;13.88;;;9.40;99.90;;;;;;7372862;19;20431;-61
2024/02/14 05:13:52;;;;;;;20.80;13.80;;;9.40;99.90;;;;;;7370557;19;20065;-60
2024/02/14 05:16:24;;;;;;;18.35;13.70;;;9.30;99.90;;;;;;7368674;19;20066;-61
2024/02/14 05:18:50;;;;;;;17.35;13.55;;;9.40;99.90;;;;;;7383903;19;20078;-63
2024/02/14 05:21:20;;;;;;;18.80;14.05;;;9.40;99.90;;;;;;7384227;19;20015;-63
2024/02/14 05:23:46;;;;;;;16.13;13.40;;;9.40;99.90;;;;;;7371248;19;20474;-60
2024/02/14 05:26:12;;;;;;;17.00;13.63;;;9.40;99.90;;;;;;7371940;19;20029;-60
2024/02/14 05:28:38;;;;;;;18.63;13.80;;;9.40;99.90;;;;;;7370407;19;20074;-63
2024/02/14 05:31:05;;;;;;;15.93;12.35;;;9.40;99.90;;;;;;7388056;19;20022;-63
2024/02/14 05:33:36;;;;;;;15.52;12.75;;;9.40;99.90;;;;;;7392360;19;20018;-64
2024/02/14 05:36:05;;;;;;;15.82;12.95;;;9.50;99.90;;;;;;7393495;19;20010;-62
2024/02/14 05:38:33;;;;;;;19.10;13.68;;;9.50;99.90;;;;;;7378646;19;20006;-62
2024/02/14 05:41:00;;;;;;;18.58;12.82;;;9.50;99.90;;;;;;7385111;19;20022;-65
2024/02/14 05:43:27;;;;;;;14.35;11.02;;;9.50;99.90;;;;;;7385014;19;20039;-61
2024/02/14 05:45:55;;;;;;;15.73;12.18;;;9.50;99.90;;;;;;7377714;19;20097;-62
2024/02/14 05:48:25;;;;;;;17.33;12.35;;;9.50;99.90;;;;;;7380614;19;20010;-62
2024/02/14 05:50:52;;;;;;;15.32;11.32;;;9.50;99.90;;;;;;7386244;19;20026;-59
2024/02/14 05:53:20;;;;;;;16.23;12.25;;;9.60;99.90;;;;;;7377295;19;20078;-59
2024/02/14 05:55:47;;;;;;;14.63;9.93;;;9.50;99.90;;;;;;7379722;19;20078;-63
2024/02/14 05:58:15;;;;;;;15.23;11.68;;;9.60;99.90;;;;;;7385017;19;20094;-63
2024/02/14 06:00:42;;;;;;;16.92;11.30;;;9.60;99.90;;;;;;7388418;19;20819;-63
2024/02/14 06:03:09;;;;;;;14.10;11.20;;;9.60;99.90;;;;;;7382431;19;20024;-65
2024/02/14 06:05:36;;;;;;;18.45;12.70;;;9.60;99.90;;;;;;7389327;19;20014;-65
2024/02/14 06:08:04;;;;;;;18.38;13.23;;;9.60;99.90;;;;;;7378459;19;20022;-61
2024/02/14 06:10:31;;;;;;;17.60;13.10;;;9.60;99.90;;;;;;7382658;19;20826;-64
2024/02/14 06:12:59;;;;;;;18.27;14.10;;;9.60;99.90;;;;;;7380465;19;20067;-64
2024/02/14 06:15:26;;;;;;;20.42;13.05;;;9.60;99.90;;;;;;7383581;19;20022;-63
2024/02/14 06:17:53;;;;;;;20.50;14.30;;;9.60;99.90;;;;;;7381862;19;20097;-62
2024/02/14 06:20:20;;;;;;;22.95;14.68;;;9.60;99.90;;;;;;7383432;19;20023;-64
2024/02/14 06:22:47;;;;;;;21.17;14.25;;;9.70;99.90;;;;;;7388548;19;20021;-64
2024/02/14 06:25:14;;;;;;;20.10;14.68;;;9.60;99.90;;;;;;7389302;19;20564;-64
2024/02/14 06:27:54;;;;;;;21.60;13.88;;;9.70;99.90;;;;;;7389365;19;20124;-64
2024/02/14 06:30:21;;;;;;;66.00;57.53;;;9.70;99.90;;;;;;7383651;19;20022;-63
2024/02/14 06:32:49;;;;;;;22.35;14.63;;;9.80;99.90;;;;;;7386822;19;20018;-64
2024/02/14 06:35:18;;;;;;;24.02;15.07;;;9.80;99.90;;;;;;7385886;19;20074;-65
2024/02/14 06:37:45;;;;;;;23.40;14.13;;;9.80;99.90;;;;;;7386309;19;20023;-65
2024/02/14 06:40:12;;;;;;;21.95;14.70;;;9.80;99.90;;;;;;7388324;19;20061;-65
2024/02/14 06:42:39;;;;;;;22.13;15.27;;;9.80;99.90;;;;;;7384646;19;20022;-61
2024/02/14 06:45:07;;;;;;;30.42;17.15;;;9.80;99.90;;;;;;7383852;19;20022;-65
2024/02/14 06:47:37;;;;;;;27.98;18.92;;;9.80;99.90;;;;;;7376468;19;20018;-62
2024/02/14 06:50:04;;;;;;;31.30;19.05;;;9.90;99.90;;;;;;7382265;19;20017;-64
2024/02/14 06:52:31;;;;;;;33.85;21.88;;;9.90;99.90;;;;;;7380881;19;20041;-61
2024/02/14 06:54:59;;;;;;;33.92;20.65;;;9.90;99.90;;;;;;7381180;19;20026;-63
2024/02/14 06:57:25;;;;;;;32.05;20.15;;;9.90;99.90;;;;;;7384829;19;20482;-65
2024/02/14 06:59:52;;;;;;;37.35;20.95;;;9.90;99.90;;;;;;7384154;19;20031;-65
2024/02/14 07:02:18;;;;;;;37.72;22.10;;;9.90;99.90;;;;;;7386536;19;20053;-65
2024/02/14 07:04:44;;;;;;;37.42;22.15;;;9.90;99.90;;;;;;7381932;19;20057;-62
2024/02/14 07:07:11;;;;;;;38.00;21.95;;;9.90;99.90;;;;;;7380381;19;20023;-62
2024/02/14 07:09:38;;;;;;;38.58;22.55;;;10.00;99.90;;;;;;7373207;19;20571;-62
2024/02/14 07:12:05;;;;;;;41.05;21.73;;;9.90;99.90;;;;;;7380467;19;20015;-62
2024/02/14 07:14:31;;;;;;;36.20;22.55;;;10.00;99.90;;;;;;7376906;19;20040;-62
2024/02/14 07:16:57;;;;;;;31.45;21.30;;;10.00;99.90;;;;;;7377217;19;20031;-64
2024/02/14 07:19:24;;;;;;;38.70;23.35;;;10.00;99.90;;;;;;7373490;19;20015;-61
2024/02/14 07:21:50;;;;;;;35.63;22.08;;;10.00;99.90;;;;;;7371919;19;20497;-64
2024/02/14 07:24:16;;;;;;;35.92;22.23;;;10.00;99.90;;;;;;7382707;19;20041;-65
2024/02/14 07:26:44;;;;;;;38.97;22.27;;;10.00;99.90;;;;;;7376442;19;20019;-61
2024/02/14 07:29:10;;;;;;;38.35;22.58;;;10.00;99.90;;;;;;7376262;19;20018;-64
2024/02/14 07:31:37;;;;;;;36.65;20.60;;;10.00;99.90;;;;;;7382818;19;20040;-65
2024/02/14 07:34:03;;;;;;;31.40;21.85;;;10.10;99.90;;;;;;7382763;19;20729;-65
2024/02/14 07:36:32;;;;;;;38.92;22.80;;;10.00;99.90;;;;;;7384222;19;20022;-65
2024/02/14 07:38:58;;;;;;;37.03;22.63;;;10.00;99.90;;;;;;7375121;19;20018;-62
2024/02/14 07:41:24;;;;;;;37.90;22.65;;;10.00;99.90;;;;;;7376705;19;20015;-62
2024/02/14 07:43:57;;;;;;;39.65;22.88;;;10.00;99.90;;;;;;7372327;19;20385;-62
2024/02/14 07:46:29;;;;;;;37.47;23.25;;;10.10;99.90;;;;;;7372105;19;20028;-63
2024/02/14 07:48:57;;;;;;;40.60;23.60;;;10.10;99.90;;;;;;7371606;19;20144;-62
2024/02/14 07:51:25;;;;;;;47.28;25.90;;;10.10;99.90;;;;;;7370617;19;20094;-61
2024/02/14 07:53:52;;;;;;;50.55;26.58;;;10.10;99.90;;;;;;7370132;19;20071;-62
2024/02/14 07:56:18;;;;;;;49.80;26.77;;;10.10;99.90;;;;;;7382440;19;20002;-65
2024/02/14 07:58:44;;;;;;;47.38;27.23;;;10.00;99.90;;;;;;7379262;19;20021;-62
2024/02/14 08:01:10;;;;;;;48.22;28.13;;;10.10;99.90;;;;;;7371350;19;20014;-62
2024/02/14 08:03:36;;;;;;;50.53;28.65;;;10.10;99.90;;;;;;7372690;19;20109;-62
2024/02/14 08:06:03;;;;;;;58.38;30.83;;;10.10;99.90;;;;;;7370074;19;20014;-62
2024/02/14 08:08:29;;;;;;;64.35;32.00;;;10.20;99.90;;;;;;7374458;19;20494;-62
2024/02/14 08:10:55;;;;;;;56.25;31.92;;;10.20;99.90;;;;;;7369167;19;20021;-62
2024/02/14 08:13:22;;;;;;;60.42;32.53;;;10.10;99.90;;;;;;7374725;19;20367;-65
2024/02/14 08:15:49;;;;;;;66.22;33.85;;;10.10;99.90;;;;;;7381760;19;20309;-65
2024/02/14 08:18:15;;;;;;;67.20;36.65;;;10.20;99.90;;;;;;7384495;19;20077;-66
2024/02/14 08:20:42;;;;;;;71.85;35.47;;;10.20;99.90;;;;;;7379116;19;20014;-62
2024/02/14 08:23:13;;;;;;;63.50;34.65;;;10.30;99.90;;;;;;7375396;19;20014;-63
2024/02/14 08:25:41;;;;;;;66.40;33.70;;;10.20;99.90;;;;;;7382913;19;20011;-65
2024/02/14 08:28:07;;;;;;;57.90;33.42;;;10.30;99.90;;;;;;7386062;19;20078;-67
2024/02/14 08:30:34;;;;;;;60.50;31.40;;;10.30;99.90;;;;;;7385462;19;20486;-66
2024/02/14 08:33:00;;;;;;;67.70;32.33;;;10.30;99.90;;;;;;7387409;19;20007;-66
2024/02/14 08:35:26;;;;;;;68.70;32.80;;;10.30;99.90;;;;;;7378048;19;20478;-63
2024/02/14 08:37:56;;;;;;;60.95;32.30;;;10.30;99.90;;;;;;7374722;19;20025;-63
2024/02/14 08:40:22;;;;;;;60.50;32.83;;;10.30;99.90;;;;;;7378107;19;20014;-67
2024/02/14 08:42:48;;;;;;;66.18;33.28;;;10.30;99.90;;;;;;7385565;19;20018;-67
2024/02/14 08:45:14;;;;;;;64.00;33.72;;;10.30;99.90;;;;;;7385675;19;20423;-66
2024/02/14 08:47:44;;;;;;;65.63;33.28;;;10.30;99.90;;;;;;7385697;19;20014;-66
2024/02/14 08:50:10;;;;;;;73.55;34.33;;;10.40;99.90;;;;;;7386813;19;20484;-67
2024/02/14 08:52:40;;;;;;;68.05;33.55;;;10.40;99.90;;;;;;7386818;19;20038;-66
2024/02/14 08:55:14;;;;;;;68.93;34.38;;;10.40;99.90;;;;;;7386394;19;20030;-67
2024/02/14 08:57:41;;;;;;;71.22;36.72;;;10.40;99.90;;;;;;7383677;19;20043;-66
2024/02/14 09:00:10;;;;;;;62.63;34.53;;;10.40;99.90;;;;;;7387355;19;20039;-66
2024/02/14 09:02:41;;;;;;;67.60;35.33;;;10.40;99.90;;;;;;7382875;19;20617;-64
2024/02/14 09:05:09;;;;;;;67.18;35.88;;;10.40;99.90;;;;;;7375023;19;20043;-63
2024/02/14 09:07:36;;;;;;;70.45;36.67;;;10.40;99.90;;;;;;7377879;19;20022;-64
2024/02/14 09:10:05;;;;;;;61.97;34.40;;;10.40;99.90;;;;;;7384735;19;20023;-65
2024/02/14 09:12:33;;;;;;;67.90;34.67;;;10.40;99.90;;;;;;7384319;19;20787;-65
2024/02/14 09:15:00;;;;;;;61.53;33.72;;;10.50;99.90;;;;;;7383932;19;20407;-65
2024/02/14 09:17:27;;;;;;;63.22;32.35;;;10.40;99.90;;;;;;7383751;19;20047;-65
2024/02/14 09:19:54;;;;;;;56.75;32.90;;;10.50;99.90;;;;;;7384203;19;20015;-65
2024/02/14 09:22:21;;;;;;;65.70;32.80;;;10.50;99.90;;;;;;7379953;19;20055;-65
2024/02/14 09:24:50;;;;;;;53.40;33.28;;;10.50;99.90;;;;;;7384925;19;20028;-66
2024/02/14 09:27:17;;;;;;;54.17;32.50;;;10.50;99.90;;;;;;7378050;19;20014;-62
2024/02/14 09:29:44;;;;;;;54.17;30.33;;;10.50;99.90;;;;;;7373770;19;20573;-62
2024/02/14 09:32:11;;;;;;;51.45;30.77;;;10.50;99.90;;;;;;7372055;19;20052;-62
2024/02/14 09:34:38;;;;;;;55.92;30.23;;;10.60;99.90;;;;;;7375186;19;20434;-61
2024/02/14 09:37:06;;;;;;;58.90;31.38;;;10.40;99.90;;;;;;7371905;19;20027;-62
2024/02/14 09:39:36;;;;;;;55.80;32.03;;;10.50;99.90;;;;;;7374998;19;20019;-62
2024/02/14 09:42:08;;;;;;;60.45;31.30;;;10.50;99.90;;;;;;7371894;19;20034;-62
2024/02/14 09:44:39;;;;;;;57.85;32.65;;;10.50;99.90;;;;;;7374324;19;20078;-65
2024/02/14 09:47:09;;;;;;;67.10;33.60;;;10.60;99.90;;;;;;7377164;19;20045;-65
2024/02/14 09:49:36;;;;;;;57.63;33.42;;;10.50;99.90;;;;;;7377606;19;20026;-62
2024/02/14 09:52:05;;;;;;;63.55;33.10;;;10.50;99.90;;;;;;7385520;19;20464;-65
2024/02/14 09:54:35;;;;;;;58.00;30.85;;;10.60;99.90;;;;;;7384481;19;20018;-65
2024/02/14 09:57:02;;;;;;;59.00;32.78;;;10.60;99.90;;;;;;7379028;19;20014;-62
2024/02/14 09:59:30;;;;;;;55.58;32.45;;;10.60;99.90;;;;;;7373375;19;20383;-62
2024/02/14 10:01:58;;;;;;;56.67;31.27;;;10.60;99.90;;;;;;7369824;19;20573;-62
2024/02/14 10:04:25;;;;;;;56.47;29.77;;;10.70;99.90;;;;;;7369067;19;20014;-62
2024/02/14 10:06:52;;;;;;;59.97;32.00;;;10.70;99.90;;;;;;7366089;19;20022;-65
2024/02/14 10:09:22;;;;;;;59.63;33.85;;;10.80;99.90;;;;;;7377131;19;20058;-63
2024/02/14 10:11:49;;;;;;;65.38;38.50;;;10.70;99.90;;;;;;7361596;19;20022;-62
2024/02/14 10:14:17;;;;;;;60.75;33.80;;;10.80;99.90;;;;;;7359445;19;20086;-62
2024/02/14 10:16:45;;;;;;;56.97;34.80;;;10.80;99.90;;;;;;7367238;19;20078;-66
2024/02/14 10:19:19;;;;;;;60.53;33.85;;;10.80;99.90;;;;;;7386758;19;20039;-66
2024/02/14 10:22:05;;;;;;;64.13;36.35;;;10.70;99.90;;;;;;7380033;19;20018;-63
2024/02/14 10:24:32;;;;;;;59.38;36.83;;;10.70;99.90;;;;;;7370794;19;20026;-62
2024/02/14 10:26:59;;;;;;;60.58;33.72;;;10.70;99.90;;;;;;7370041;19;20014;-62
2024/02/14 10:29:27;;;;;;;55.92;32.78;;;10.80;99.90;;;;;;7377853;19;20015;-65
2024/02/14 10:31:54;;;;;;;54.30;32.25;;;10.80;99.90;;;;;;7389199;19;20046;-67
2024/02/14 10:34:24;;;;;;;57.75;32.33;;;10.80;99.90;;;;;;7393970;19;20443;-66
2024/02/14 10:36:53;;;;;;;50.47;28.60;;;10.80;99.90;;;;;;7389065;19;20507;-67
2024/02/14 10:39:21;;;;;;;51.90;29.60;;;10.80;99.90;;;;;;7392978;19;20096;-67
2024/02/14 10:41:47;;;;;;;47.80;28.30;;;10.80;99.90;;;;;;7386329;19;20022;-66
2024/02/14 10:44:15;;;;;;;50.95;27.67;;;10.80;99.90;;;;;;7389831;19;20022;-66
2024/02/14 10:46:44;;;;;;;49.53;27.52;;;10.80;99.90;;;;;;7389573;19;20772;-67
2024/02/14 10:49:15;;;;;;;48.08;28.20;;;10.90;99.90;;;;;;7388307;19;20018;-65
2024/02/14 10:51:43;;;;;;;52.33;28.33;;;10.90;99.90;;;;;;7388187;19;20053;-66
2024/02/14 10:54:16;;;;;;;47.42;27.60;;;10.90;99.90;;;;;;7387054;19;20492;-62
2024/02/14 10:56:48;;;;;;;72.47;45.75;;;10.90;99.90;;;;;;7376484;19;20022;-62
2024/02/14 10:59:19;;;;;;;48.13;28.58;;;10.90;99.90;;;;;;7379272;19;20010;-66
2024/02/14 11:01:46;;;;;;;51.20;29.30;;;10.90;99.90;;;;;;7387711;19;20601;-62
2024/02/14 11:04:14;;;;;;;53.58;30.50;;;11.00;99.90;;;;;;7378048;19;20019;-63
2024/02/14 11:06:57;;;;;;;52.53;31.38;;;11.00;99.90;;;;;;7378990;19;20362;-63
2024/02/14 11:09:36;;;;;;;54.40;32.75;;;11.10;99.90;;;;;;7375269;19;20025;-63
2024/02/14 11:12:03;;;;;;;51.45;32.42;;;11.00;99.90;;;;;;7374011;19;20014;-64
2024/02/14 11:14:32;;;;;;;69.80;48.33;;;11.10;99.90;;;;;;7378486;19;20019;-64
2024/02/14 11:17:00;;;;;;;52.40;31.88;;;11.10;99.90;;;;;;7374546;19;20885;-63
2024/02/14 11:19:35;;;;;;;46.00;30.92;;;11.10;99.90;;;;;;7379423;19;20593;-64
2024/02/14 11:22:21;;;;;;;41.95;29.35;;;11.10;99.90;;;;;;7374297;19;20035;-64
2024/02/14 11:24:48;;;;;;;40.60;29.58;;;11.00;99.90;;;;;;7377023;19;20011;-65
2024/02/14 11:27:20;;;;;;;37.85;26.70;;;11.10;99.90;;;;;;7376099;19;20789;-63
2024/02/14 11:29:53;;;;;;;32.10;24.80;;;11.10;99.90;;;;;;7375817;19;20482;-64
2024/02/14 11:32:22;;;;;;;33.75;24.65;;;11.10;99.90;;;;;;7375971;19;20021;-65
2024/02/14 11:34:56;;;;;;;29.40;23.05;;;11.20;99.90;;;;;;7375687;19;22215;-64
2024/02/14 11:37:31;;;;;;;26.83;20.63;;;11.10;99.90;;;;;;7378553;19;20029;-64
2024/02/14 11:39:58;;;;;;;26.35;21.88;;;11.10;99.90;;;;;;7376692;19;20470;-64
2024/02/14 11:42:25;;;;;;;26.55;21.92;;;11.10;99.90;;;;;;7373168;19;20014;-64
2024/02/14 11:44:55;;;;;;;23.27;20.23;;;11.10;99.90;;;;;;7374144;19;20021;-64
2024/02/14 11:47:25;;;;;;;23.98;21.40;;;11.20;99.90;;;;;;7369490;19;20045;-64
2024/02/14 11:49:52;;;;;;;25.17;19.85;;;11.20;99.90;;;;;;7362912;19;20023;-64
2024/02/14 12:32:17;;;;;;;18.75;16.95;;;11.60;99.90;;;;;;7250055;19;3024741;-65
2024/02/14 12:34:44;;;;;;;17.95;16.15;;;11.60;99.90;;;;;;7410908;19;20026;-68
2024/02/14 12:37:11;;;;;;;17.35;15.38;;;11.50;99.90;;;;;;7415388;19;20461;-68
2024/02/14 12:39:39;;;;;;;20.25;16.83;;;11.50;99.90;;;;;;7408523;19;21119;-68
2024/02/14 12:42:06;;;;;;;21.05;17.10;;;11.50;99.90;;;;;;7407042;19;20026;-68
2024/02/14 12:44:33;;;;;;;18.02;16.23;;;11.40;99.90;;;;;;7411725;19;20022;-68
2024/02/14 12:47:00;;;;;;;22.08;18.33;;;11.40;99.90;;;;;;7405461;19;20513;-68
2024/02/14 12:49:26;;;;;;;20.92;17.58;;;11.50;99.90;;;;;;7406940;19;20018;-68
2024/02/14 12:51:53;;;;;;;21.95;19.13;;;11.40;99.90;;;;;;7410732;19;20028;-67
2024/02/14 12:54:19;;;;;;;20.88;18.55;;;11.40;99.90;;;;;;7409123;19;20030;-67
2024/02/14 12:56:45;;;;;;;22.40;20.02;;;11.40;99.90;;;;;;7411199;19;20808;-68
2024/02/14 12:59:20;;;;;;;23.27;19.95;;;11.40;99.90;;;;;;7411391;19;21692;-68
2024/02/14 13:01:47;;;;;;;25.42;19.75;;;11.40;99.90;;;;;;7407798;19;20018;-68
2024/02/14 13:04:16;;;;;;;25.13;21.00;;;11.40;99.90;;;;;;7414556;19;20069;-67
2024/02/14 13:06:42;;;;;;;26.83;21.95;;;11.40;99.90;;;;;;7409960;19;20669;-70
2024/02/14 13:09:10;;;;;;;24.15;20.48;;;11.40;99.90;;;;;;7408873;19;20641;-67
2024/02/14 13:11:37;;;;;;;26.40;21.10;;;11.30;99.90;;;;;;7409564;19;20014;-67
2024/02/14 13:14:04;;;;;;;23.20;19.98;;;11.40;99.90;;;;;;7409394;19;20022;-67
2024/02/14 13:16:33;;;;;;;25.00;19.10;;;11.40;99.90;;;;;;7413167;19;20518;-67
2024/02/14 13:18:59;;;;;;;22.38;18.55;;;11.40;99.90;;;;;;7406305;19;20501;-67
2024/02/14 13:21:25;;;;;;;20.05;17.42;;;11.40;99.90;;;;;;7407914;19;20018;-69